createdAt,value
2022-10-19T00:00:06.405Z,5.93
2022-10-19T00:03:09.470Z,5.87
2022-10-19T00:06:31.828Z,6.13
2022-10-19T00:09:36.464Z,5.53
2022-10-19T00:12:39.713Z,5.93
2022-10-19T00:15:45.676Z,6.40
2022-10-19T00:18:51.537Z,5.70
2022-10-19T00:21:59.863Z,5.68
2022-10-19T00:25:09.976Z,5.68
2022-10-19T00:28:13.568Z,5.53
2022-10-19T00:31:18.204Z,5.93
2022-10-19T00:34:23.976Z,6.07
2022-10-19T00:37:26.842Z,5.93
2022-10-19T00:40:40.839Z,5.20
2022-10-19T00:43:54.291Z,5.70
2022-10-19T00:47:07.553Z,6.13
2022-10-19T00:50:14.333Z,5.73
2022-10-19T00:53:17.847Z,6.05
2022-10-19T00:56:20.629Z,6.10
2022-10-19T00:59:28.418Z,5.45
2022-10-19T01:02:31.746Z,5.47
2022-10-19T01:05:49.889Z,5.97
2022-10-19T01:08:57.734Z,5.53
2022-10-19T01:12:37.041Z,5.57
2022-10-19T01:15:57.837Z,5.28
2022-10-19T01:19:12.955Z,5.07
2022-10-19T01:22:26.655Z,6.07
2022-10-19T01:25:57.524Z,6.38
2022-10-19T01:29:10.424Z,5.80
2022-10-19T01:32:35.492Z,5.07
2022-10-19T01:36:10.090Z,5.57
2022-10-19T01:39:34.644Z,5.93
2022-10-19T01:46:20.633Z,5.40
2022-10-19T01:49:49.908Z,5.55
2022-10-19T01:52:54.272Z,5.50
2022-10-19T01:56:00.054Z,5.60
2022-10-19T01:59:05.253Z,5.85
2022-10-19T02:02:12.235Z,5.25
2022-10-19T02:05:17.247Z,5.68
2022-10-19T02:08:29.183Z,5.63
2022-10-19T02:11:32.460Z,5.10
2022-10-19T02:14:44.626Z,5.28
2022-10-19T02:17:50.821Z,5.00
2022-10-19T02:20:53.564Z,5.45
2022-10-19T02:23:57.278Z,5.20
2022-10-19T02:27:05.046Z,5.10
2022-10-19T02:30:10.965Z,4.95
2022-10-19T02:33:15.242Z,5.22
2022-10-19T02:36:19.693Z,5.70
2022-10-19T02:39:23.022Z,5.10
2022-10-19T02:42:35.721Z,4.63
2022-10-19T02:45:46.854Z,5.25
2022-10-19T02:48:51.607Z,5.85
2022-10-19T02:52:03.373Z,5.35
2022-10-19T02:55:08.039Z,5.87
2022-10-19T02:58:10.642Z,4.80
2022-10-19T03:01:14.868Z,4.63
2022-10-19T03:04:18.106Z,4.80
2022-10-19T03:07:21.717Z,4.90
2022-10-19T03:10:24.621Z,4.90
2022-10-19T03:13:27.484Z,5.30
2022-10-19T03:16:30.052Z,5.43
2022-10-19T03:19:34.196Z,5.28
2022-10-19T03:22:36.809Z,5.35
2022-10-19T03:25:39.466Z,5.37
2022-10-19T03:28:42.449Z,5.50
2022-10-19T03:31:45.350Z,5.53
2022-10-19T03:34:47.948Z,5.10
2022-10-19T03:37:50.551Z,4.40
2022-10-19T03:40:54.724Z,5.00
2022-10-19T03:43:57.892Z,4.80
2022-10-19T03:47:00.417Z,4.65
2022-10-19T03:50:06.397Z,5.40
2022-10-19T03:53:10.387Z,5.20
2022-10-19T03:56:15.413Z,5.40
2022-10-19T03:59:18.347Z,5.10
2022-10-19T04:02:21.349Z,4.93
2022-10-19T04:05:24.725Z,5.00
2022-10-19T04:08:27.358Z,4.70
2022-10-19T04:11:33.991Z,5.10
2022-10-19T04:14:45.816Z,4.90
2022-10-19T04:17:55.382Z,4.78
2022-10-19T04:21:02.237Z,5.10
2022-10-19T04:24:14.559Z,5.45
2022-10-19T04:27:19.966Z,4.93
2022-10-19T04:30:23.246Z,4.47
2022-10-19T04:33:25.942Z,5.30
2022-10-19T04:36:28.725Z,4.78
2022-10-19T04:39:31.525Z,5.72
2022-10-19T04:42:34.316Z,5.07
2022-10-19T04:45:36.948Z,4.83
2022-10-19T04:48:41.110Z,5.70
2022-10-19T04:51:44.101Z,4.97
2022-10-19T04:54:47.580Z,5.07
2022-10-19T04:57:50.246Z,5.37
2022-10-19T05:01:00.917Z,5.33
2022-10-19T05:04:22.954Z,4.93
2022-10-19T05:07:25.695Z,5.00
2022-10-19T05:10:29.218Z,4.85
2022-10-19T05:13:34.557Z,4.70
2022-10-19T05:16:37.291Z,5.43
2022-10-19T05:19:39.902Z,5.00
2022-10-19T05:22:42.777Z,5.07
2022-10-19T05:25:45.507Z,4.63
2022-10-19T05:28:56.766Z,5.20
2022-10-19T05:31:59.919Z,5.67
2022-10-19T05:35:02.955Z,5.53
2022-10-19T05:38:05.687Z,5.20
2022-10-19T05:41:12.287Z,4.60
2022-10-19T05:44:20.931Z,5.23
2022-10-19T05:47:27.339Z,5.40
2022-10-19T05:50:37.311Z,4.57
2022-10-19T05:53:41.105Z,5.05
2022-10-19T05:56:44.422Z,5.57
2022-10-19T05:59:47.271Z,5.50
2022-10-19T06:02:58.286Z,5.23
2022-10-19T06:06:06.529Z,5.68
2022-10-19T06:09:12.047Z,5.00
2022-10-19T06:12:22.866Z,5.20
2022-10-19T06:15:31.325Z,5.07
2022-10-19T06:18:36.973Z,5.17
2022-10-19T06:21:43.287Z,5.32
2022-10-19T06:24:48.397Z,5.45
2022-10-19T06:27:51.129Z,4.90
2022-10-19T06:30:57.471Z,5.27
2022-10-19T06:34:02.590Z,5.10
2022-10-19T06:37:13.973Z,5.40
2022-10-19T06:40:26.234Z,4.70
2022-10-19T06:43:29.060Z,4.53
2022-10-19T06:46:32.815Z,4.83
2022-10-19T06:49:41.855Z,5.10
2022-10-19T06:56:35.709Z,5.72
2022-10-19T06:59:44.230Z,5.13
2022-10-19T07:03:00.314Z,5.27
2022-10-19T07:06:08.493Z,5.90
2022-10-19T07:09:30.746Z,5.85
2022-10-19T07:12:33.676Z,6.22
2022-10-19T07:15:36.409Z,5.20
2022-10-19T07:18:43.258Z,5.30
2022-10-19T07:21:46.495Z,5.50
2022-10-19T07:24:49.372Z,5.45
2022-10-19T07:27:52.111Z,5.45
2022-10-19T07:30:55.335Z,5.45
2022-10-19T07:34:00.808Z,5.77
2022-10-19T07:37:03.526Z,5.00
2022-10-19T07:40:07.176Z,5.60
2022-10-19T07:43:10.119Z,5.35
2022-10-19T07:46:18.829Z,5.43
2022-10-19T07:49:22.215Z,6.67
2022-10-19T07:52:27.027Z,6.93
2022-10-19T07:55:29.646Z,7.10
2022-10-19T07:58:32.737Z,7.82
2022-10-19T08:01:41.740Z,7.55
2022-10-19T08:05:02.798Z,7.47
2022-10-19T08:08:07.111Z,7.33
2022-10-19T08:11:16.595Z,8.00
2022-10-19T08:14:19.374Z,8.10
2022-10-19T08:17:22.086Z,7.72
2022-10-19T08:20:25.289Z,7.63
2022-10-19T08:23:27.970Z,7.67
2022-10-19T08:26:32.937Z,7.30
2022-10-19T08:29:39.434Z,6.35
2022-10-19T08:32:47.532Z,7.25
2022-10-19T08:35:50.175Z,7.33
2022-10-19T08:38:53.497Z,7.00
2022-10-19T08:41:59.740Z,7.75
2022-10-19T08:45:08.926Z,7.30
2022-10-19T08:48:14.681Z,7.18
2022-10-19T08:51:17.420Z,6.77
2022-10-19T08:54:20.685Z,6.70
2022-10-19T08:57:56.082Z,6.90
2022-10-19T09:01:17.334Z,6.70
2022-10-19T09:04:37.281Z,6.80
2022-10-19T09:07:45.797Z,7.07
2022-10-19T09:10:51.974Z,6.57
2022-10-19T09:14:11.063Z,6.88
2022-10-19T09:17:23.912Z,7.38
2022-10-19T09:20:42.831Z,7.18
2022-10-19T09:24:06.533Z,6.10
2022-10-19T09:27:21.280Z,6.23
2022-10-19T09:30:24.808Z,6.22
2022-10-19T09:33:33.235Z,6.45
2022-10-19T09:36:55.829Z,6.85
2022-10-19T09:39:58.597Z,6.77
2022-10-19T09:43:09.816Z,6.97
2022-10-19T09:46:20.662Z,6.13
2022-10-19T09:49:44.308Z,6.43
2022-10-19T09:52:56.516Z,6.72
2022-10-19T09:56:09.205Z,6.17
2022-10-19T09:59:22.420Z,6.27
2022-10-19T10:02:33.956Z,6.40
2022-10-19T10:05:41.131Z,6.25
2022-10-19T10:08:58.194Z,6.40
2022-10-19T10:12:04.326Z,5.80
2022-10-19T10:15:08.172Z,5.57
2022-10-19T10:18:17.132Z,6.85
2022-10-19T10:21:51.118Z,6.20
2022-10-19T10:24:56.686Z,6.25
2022-10-19T10:28:21.656Z,5.80
2022-10-19T10:31:29.627Z,5.60
2022-10-19T10:34:45.924Z,6.10
2022-10-19T10:38:06.563Z,6.25
2022-10-19T10:41:20.399Z,5.85
2022-10-19T10:44:26.653Z,5.70
2022-10-19T10:47:31.094Z,5.53
2022-10-19T10:50:38.606Z,5.82
2022-10-19T10:53:48.527Z,5.43
2022-10-19T10:57:14.248Z,5.68
2022-10-19T11:00:19.967Z,5.30
2022-10-19T11:03:27.137Z,5.37
2022-10-19T11:06:31.468Z,5.53
2022-10-19T11:09:45.643Z,5.00
2022-10-19T11:12:56.156Z,5.18
2022-10-19T11:16:16.322Z,4.43
2022-10-19T11:19:23.988Z,4.73
2022-10-19T11:22:45.663Z,4.80
2022-10-19T11:26:12.042Z,4.28
2022-10-19T11:29:32.632Z,4.72
2022-10-19T11:33:07.591Z,4.40
2022-10-19T11:36:29.830Z,4.63
2022-10-19T11:39:57.541Z,4.30
2022-10-19T11:43:07.087Z,5.10
2022-10-19T11:46:25.773Z,5.45
2022-10-19T11:49:52.886Z,4.40
2022-10-19T11:53:26.278Z,4.37
2022-10-19T11:57:02.255Z,4.85
2022-10-19T12:00:14.965Z,4.53
2022-10-19T12:03:50.960Z,5.20
2022-10-19T12:07:08.418Z,5.60
2022-10-19T12:10:21.639Z,5.80
2022-10-19T12:13:44.518Z,4.95
2022-10-19T12:16:58.054Z,5.50
2022-10-19T12:20:05.394Z,5.43
2022-10-19T12:23:31.218Z,5.23
2022-10-19T12:26:36.540Z,5.07
2022-10-19T12:29:43.772Z,5.35
2022-10-19T12:33:06.100Z,4.88
2022-10-19T12:36:30.262Z,5.57
2022-10-19T12:39:46.440Z,5.20
2022-10-19T12:43:22.013Z,4.90
2022-10-19T12:46:36.356Z,5.65
2022-10-19T12:49:45.819Z,5.40
2022-10-19T12:52:54.755Z,5.00
2022-10-19T12:56:03.379Z,5.20
2022-10-19T12:59:19.890Z,4.60
2022-10-19T13:02:30.775Z,5.13
2022-10-19T13:05:34.859Z,5.20
2022-10-19T13:08:48.505Z,5.28
2022-10-19T13:12:22.455Z,4.97
2022-10-19T13:15:36.580Z,4.80
2022-10-19T13:19:14.677Z,5.45
2022-10-19T13:22:27.194Z,5.30
2022-10-19T13:25:39.687Z,4.55
2022-10-19T13:28:53.376Z,4.13
2022-10-19T13:31:56.063Z,4.90
2022-10-19T13:35:23.333Z,5.20
2022-10-19T13:41:49.432Z,4.90
2022-10-19T13:44:53.460Z,4.00
2022-10-19T13:48:12.356Z,5.20
2022-10-19T13:51:16.209Z,4.40
2022-10-19T13:54:37.464Z,4.63
2022-10-19T13:57:54.180Z,4.47
2022-10-19T14:01:10.439Z,4.83
2022-10-19T14:04:39.751Z,3.97
2022-10-19T14:08:05.452Z,4.93
2022-10-19T14:11:28.793Z,4.22
2022-10-19T14:14:55.759Z,4.22
2022-10-19T14:18:03.601Z,4.37
2022-10-19T14:21:11.206Z,4.30
2022-10-19T14:24:35.678Z,4.28
2022-10-19T14:27:39.433Z,4.43
2022-10-19T14:30:57.563Z,4.03
2022-10-19T14:34:18.283Z,4.37
2022-10-19T14:37:26.278Z,4.37
2022-10-19T14:40:41.415Z,4.72
2022-10-19T14:43:45.096Z,4.22
2022-10-19T14:46:51.466Z,4.60
2022-10-19T14:49:55.125Z,4.00
2022-10-19T14:53:36.849Z,4.00
2022-10-19T14:56:52.450Z,4.55
2022-10-19T15:00:02.529Z,3.90
2022-10-19T15:03:12.712Z,4.40
2022-10-19T15:06:24.180Z,3.93
2022-10-19T15:09:47.444Z,3.70
2022-10-19T15:12:53.099Z,3.88
2022-10-19T15:15:56.725Z,3.88
2022-10-19T15:19:27.243Z,4.40
2022-10-19T15:22:38.798Z,4.10
2022-10-19T15:25:42.347Z,3.83
2022-10-19T15:28:46.085Z,4.07
2022-10-19T15:31:49.089Z,4.03
2022-10-19T15:34:52.123Z,3.63
2022-10-19T15:38:06.992Z,4.40
2022-10-19T15:41:20.462Z,4.30
2022-10-19T15:44:40.358Z,3.83
2022-10-19T15:48:23.286Z,4.07
2022-10-19T15:51:25.970Z,3.67
2022-10-19T15:54:28.807Z,4.03
2022-10-19T15:57:38.956Z,4.30
2022-10-19T16:00:42.672Z,3.72
2022-10-19T16:03:46.514Z,3.63
2022-10-19T16:06:49.422Z,3.95
2022-10-19T16:09:52.646Z,3.80
2022-10-19T16:12:55.647Z,3.67
2022-10-19T16:16:11.274Z,3.67
2022-10-19T16:19:15.007Z,3.67
2022-10-19T16:22:18.079Z,3.40
2022-10-19T16:25:21.904Z,3.93
2022-10-19T16:28:26.985Z,3.80
2022-10-19T16:31:31.715Z,3.95
2022-10-19T16:34:35.966Z,3.63
2022-10-19T16:37:40.086Z,3.70
2022-10-19T16:40:44.076Z,3.70
2022-10-19T16:43:48.577Z,3.83
2022-10-19T16:46:52.853Z,3.92
2022-10-19T16:50:00.510Z,3.42
2022-10-19T16:53:12.560Z,3.20
2022-10-19T16:56:17.228Z,3.27
2022-10-19T16:59:22.208Z,3.63
2022-10-19T17:02:25.853Z,3.42
2022-10-19T17:05:29.614Z,3.60
2022-10-19T17:09:14.395Z,3.53
2022-10-19T17:12:02.914Z,3.80
2022-10-19T17:18:28.086Z,3.47
2022-10-19T17:21:34.868Z,3.42
2022-10-19T17:24:39.778Z,4.03
2022-10-19T17:27:43.629Z,3.77
2022-10-19T17:30:50.850Z,2.90
2022-10-19T17:33:56.508Z,3.50
2022-10-19T17:37:00.592Z,3.53
2022-10-19T17:40:05.887Z,3.58
2022-10-19T17:43:11.087Z,4.13
2022-10-19T17:46:17.402Z,3.60
2022-10-19T17:49:21.095Z,3.38
2022-10-19T17:52:25.698Z,3.40
2022-10-19T17:55:32.243Z,3.35
2022-10-19T17:58:39.803Z,3.40
2022-10-19T18:01:44.250Z,2.70
2022-10-19T18:04:51.555Z,3.72
2022-10-19T18:07:55.617Z,3.60
2022-10-19T18:11:15.940Z,3.60
2022-10-19T18:14:20.127Z,3.60
2022-10-19T18:17:27.793Z,3.57
2022-10-19T18:20:32.715Z,3.30
2022-10-19T18:23:37.941Z,3.38
2022-10-19T18:26:41.944Z,3.38
2022-10-19T18:29:49.574Z,3.40
2022-10-19T18:32:53.568Z,3.70
2022-10-19T18:36:01.364Z,3.90
2022-10-19T18:39:06.776Z,3.15
2022-10-19T18:42:13.047Z,3.75
2022-10-19T18:45:16.505Z,3.30
2022-10-19T18:48:22.516Z,3.53
2022-10-19T18:51:28.086Z,3.63
2022-10-19T18:54:32.607Z,3.72
2022-10-19T18:57:37.000Z,3.22
2022-10-19T19:00:45.673Z,3.40
2022-10-19T19:03:56.738Z,3.50
2022-10-19T19:07:06.229Z,3.60
2022-10-19T19:10:16.172Z,3.20
2022-10-19T19:13:20.022Z,3.42
2022-10-19T19:16:25.150Z,3.80
2022-10-19T19:19:30.443Z,3.50
2022-10-19T19:22:36.180Z,3.58
2022-10-19T19:25:42.848Z,2.90
2022-10-19T19:28:49.175Z,3.60
2022-10-19T19:31:57.148Z,3.07
2022-10-19T19:35:02.400Z,3.40
2022-10-19T19:38:07.028Z,3.35
2022-10-19T19:41:15.948Z,3.75
2022-10-19T19:44:21.858Z,3.63
2022-10-19T19:47:26.752Z,3.07
2022-10-19T19:50:40.984Z,3.10
2022-10-19T19:53:46.890Z,3.38
2022-10-19T19:56:57.146Z,3.78
2022-10-19T20:00:06.117Z,3.30
2022-10-19T20:03:19.498Z,3.33
2022-10-19T20:06:28.504Z,3.20
2022-10-19T20:09:36.309Z,3.00
2022-10-19T20:12:46.778Z,3.17
2022-10-19T20:15:50.977Z,3.30
2022-10-19T20:19:08.898Z,3.50
2022-10-19T20:22:14.750Z,3.00
2022-10-19T20:25:20.388Z,3.40
2022-10-19T20:28:27.296Z,3.35
2022-10-19T20:31:33.067Z,3.28
2022-10-19T20:34:37.101Z,3.30
2022-10-19T20:37:40.543Z,3.40
2022-10-19T20:40:47.781Z,3.13
2022-10-19T20:43:53.852Z,3.53
2022-10-19T20:46:57.329Z,3.20
2022-10-19T20:50:00.785Z,2.97
2022-10-19T20:53:04.077Z,3.27
2022-10-19T20:56:10.317Z,3.28
2022-10-19T20:59:16.585Z,3.00
2022-10-19T21:02:19.754Z,3.63
2022-10-19T21:05:22.821Z,3.30
2022-10-19T21:08:25.751Z,3.17
2022-10-19T21:11:31.257Z,3.20
2022-10-19T21:14:33.948Z,3.25
2022-10-19T21:17:36.828Z,2.67
2022-10-19T21:20:40.187Z,2.87
2022-10-19T21:23:45.179Z,3.47
2022-10-19T21:26:48.293Z,3.08
2022-10-19T21:29:50.951Z,3.47
2022-10-19T21:32:54.046Z,3.60
2022-10-19T21:35:56.944Z,3.17
2022-10-19T21:39:02.542Z,3.30
2022-10-19T21:42:06.512Z,3.00
2022-10-19T21:45:30.237Z,3.67
2022-10-19T21:48:36.561Z,2.72
2022-10-19T21:51:50.869Z,3.30
2022-10-19T21:54:53.783Z,3.50
2022-10-19T21:57:56.958Z,3.03
2022-10-19T22:01:07.913Z,4.00
2022-10-19T22:04:31.021Z,3.17
2022-10-19T22:07:42.530Z,3.03
2022-10-19T22:10:45.359Z,3.00
2022-10-19T22:13:48.303Z,3.42
2022-10-19T22:16:51.044Z,2.88
2022-10-19T22:19:53.875Z,3.55
2022-10-19T22:22:56.560Z,3.27
2022-10-19T22:25:59.913Z,3.27
2022-10-19T22:29:04.620Z,3.33
2022-10-19T22:32:07.640Z,3.28
2022-10-19T22:35:19.443Z,3.03
2022-10-19T22:38:27.423Z,3.23
2022-10-19T22:41:33.329Z,3.20
2022-10-19T22:44:37.677Z,3.35
2022-10-19T22:47:47.447Z,3.15
2022-10-19T22:50:54.700Z,3.20
2022-10-19T22:53:57.701Z,3.03
2022-10-19T22:57:05.865Z,3.40
2022-10-19T23:00:09.311Z,2.83
2022-10-19T23:03:12.509Z,2.95
2022-10-19T23:06:16.785Z,3.20
2022-10-19T23:09:22.354Z,3.20
2022-10-19T23:12:25.436Z,3.00
2022-10-19T23:15:29.350Z,2.58
2022-10-19T23:18:40.436Z,2.92
2022-10-19T23:21:49.162Z,3.35
2022-10-19T23:24:52.096Z,3.40
2022-10-19T23:27:54.782Z,3.17
2022-10-19T23:30:59.078Z,3.15
2022-10-19T23:34:05.271Z,2.80
2022-10-19T23:37:08.422Z,2.95
2022-10-19T23:40:11.626Z,2.40
2022-10-19T23:43:14.540Z,3.03
2022-10-19T23:46:17.287Z,2.75
2022-10-19T23:49:19.876Z,2.90
2022-10-19T23:52:25.368Z,2.63
2022-10-19T23:55:27.980Z,2.57
2022-10-19T23:58:31.370Z,3.17
